createdAt,value
2022-10-29T00:00:20.124Z,8.55
2022-10-29T00:02:48.114Z,11.82
2022-10-29T00:05:16.234Z,10.85
2022-10-29T00:07:44.199Z,11.50
2022-10-29T00:10:12.108Z,10.82
2022-10-29T00:12:39.952Z,9.63
2022-10-29T00:15:08.785Z,15.38
2022-10-29T00:17:37.973Z,11.18
2022-10-29T00:22:39.924Z,15.95
2022-10-29T00:25:08.515Z,11.80
2022-10-29T00:27:36.461Z,13.05
2022-10-29T00:30:04.668Z,12.57
2022-10-29T00:32:32.501Z,17.10
2022-10-29T00:35:01.765Z,10.05
2022-10-29T00:37:29.617Z,12.18
2022-10-29T00:39:57.455Z,13.32
2022-10-29T00:42:25.931Z,12.32
2022-10-29T00:44:53.892Z,13.25
2022-10-29T00:47:24.891Z,13.80
2022-10-29T00:49:56.210Z,11.77
2022-10-29T00:52:30.966Z,8.55
2022-10-29T00:55:01.718Z,10.77
2022-10-29T00:57:36.795Z,9.35
2022-10-29T01:00:06.524Z,9.00
2022-10-29T01:02:37.280Z,11.10
2022-10-29T01:05:08.535Z,11.82
2022-10-29T01:07:38.492Z,9.70
2022-10-29T01:10:07.149Z,9.18
2022-10-29T01:12:58.619Z,17.17
2022-10-29T01:15:32.875Z,12.57
2022-10-29T01:18:11.452Z,17.40
2022-10-29T01:21:11.828Z,14.85
2022-10-29T01:24:14.922Z,12.23
2022-10-29T01:27:06.741Z,12.50
2022-10-29T01:29:58.212Z,14.13
2022-10-29T01:32:35.090Z,10.82
2022-10-29T01:35:08.900Z,16.13
2022-10-29T01:37:45.777Z,10.45
2022-10-29T01:40:23.172Z,11.95
2022-10-29T01:42:58.889Z,12.05
2022-10-29T01:45:32.626Z,12.48
2022-10-29T01:48:08.288Z,10.20
2022-10-29T01:50:39.686Z,11.07
2022-10-29T01:53:08.621Z,9.35
2022-10-29T01:55:36.448Z,8.38
2022-10-29T01:58:04.952Z,10.27
2022-10-29T02:00:41.642Z,7.95
2022-10-29T02:03:24.031Z,12.88
2022-10-29T02:06:01.873Z,12.50
2022-10-29T02:08:38.533Z,17.15
2022-10-29T02:11:13.036Z,10.80
2022-10-29T02:13:45.024Z,13.43
2022-10-29T02:16:15.335Z,14.73
2022-10-29T02:18:48.851Z,11.18
2022-10-29T02:21:17.483Z,15.00
2022-10-29T02:23:46.441Z,9.20
2022-10-29T02:26:14.640Z,12.07
2022-10-29T02:28:42.496Z,7.90
2022-10-29T02:31:10.697Z,12.02
2022-10-29T02:33:38.763Z,9.85
2022-10-29T02:36:09.395Z,10.82
2022-10-29T02:38:37.276Z,11.48
2022-10-29T02:41:05.670Z,11.30
2022-10-29T02:43:33.644Z,12.90
2022-10-29T02:46:16.607Z,9.32
2022-10-29T02:48:44.739Z,10.70
2022-10-29T02:51:14.768Z,7.63
2022-10-29T02:53:43.186Z,10.32
2022-10-29T02:56:11.901Z,8.77
2022-10-29T02:58:39.758Z,12.35
2022-10-29T03:01:08.120Z,15.27
2022-10-29T03:03:36.116Z,13.98
2022-10-29T03:06:04.244Z,7.13
2022-10-29T03:08:33.712Z,11.63
2022-10-29T03:11:01.610Z,11.48
2022-10-29T03:13:29.835Z,12.80
2022-10-29T03:15:57.785Z,7.60
2022-10-29T03:18:25.670Z,15.43
2022-10-29T03:20:53.647Z,8.27
2022-10-29T03:23:22.177Z,10.63
2022-10-29T03:25:55.815Z,9.18
2022-10-29T03:28:27.880Z,12.32
2022-10-29T03:30:55.967Z,12.15
2022-10-29T03:33:25.881Z,14.57
2022-10-29T03:35:57.934Z,15.52
2022-10-29T03:38:26.062Z,17.55
2022-10-29T03:40:56.148Z,11.80
2022-10-29T03:43:24.405Z,15.18
2022-10-29T03:45:52.580Z,9.25
2022-10-29T03:48:21.050Z,10.93
2022-10-29T03:50:55.646Z,8.88
2022-10-29T03:53:23.909Z,10.45
2022-10-29T03:55:52.481Z,10.02
2022-10-29T03:58:22.055Z,9.73
2022-10-29T04:00:55.266Z,10.17
2022-10-29T04:03:23.693Z,8.07
2022-10-29T04:05:51.618Z,13.13
2022-10-29T04:08:19.475Z,10.20
2022-10-29T04:10:48.105Z,12.30
2022-10-29T04:13:16.525Z,9.52
2022-10-29T04:15:46.158Z,12.27
2022-10-29T04:18:14.761Z,19.73
2022-10-29T04:22:18.028Z,9.57
2022-10-29T04:28:29.028Z,10.77
2022-10-29T04:29:07.228Z,13.48
2022-10-29T04:31:37.788Z,11.63
2022-10-29T04:34:06.358Z,12.30
2022-10-29T04:36:34.271Z,11.65
2022-10-29T04:39:02.378Z,13.55
2022-10-29T04:41:30.406Z,14.73
2022-10-29T04:43:58.320Z,12.50
2022-10-29T04:46:26.221Z,12.13
2022-10-29T04:48:55.530Z,13.63
2022-10-29T04:51:25.262Z,18.70
2022-10-29T04:53:53.141Z,13.13
2022-10-29T04:56:21.100Z,14.70
2022-10-29T04:58:52.519Z,16.70
2022-10-29T05:01:20.682Z,12.10
2022-10-29T05:03:48.564Z,13.60
2022-10-29T05:06:17.753Z,12.70
2022-10-29T05:08:45.580Z,11.20
2022-10-29T05:11:13.396Z,13.70
2022-10-29T05:13:41.757Z,13.63
2022-10-29T05:16:09.681Z,14.45
2022-10-29T05:18:38.517Z,13.07
2022-10-29T05:21:06.945Z,12.70
2022-10-29T05:23:36.384Z,10.20
2022-10-29T05:26:04.454Z,15.90
2022-10-29T05:28:32.285Z,13.02
2022-10-29T05:31:02.630Z,16.02
2022-10-29T05:33:30.435Z,21.45
2022-10-29T05:36:00.182Z,11.25
2022-10-29T05:38:32.140Z,16.02
2022-10-29T05:41:01.677Z,12.82
2022-10-29T05:43:29.805Z,15.45
2022-10-29T05:45:57.844Z,19.30
2022-10-29T05:48:25.918Z,14.48
2022-10-29T05:50:53.774Z,15.57
2022-10-29T05:53:21.598Z,14.45
2022-10-29T05:55:49.394Z,17.75
2022-10-29T05:58:18.622Z,12.57
2022-10-29T06:00:47.236Z,15.18
2022-10-29T06:03:17.144Z,14.10
2022-10-29T06:05:45.755Z,13.77
2022-10-29T06:08:13.773Z,17.10
2022-10-29T06:10:41.612Z,12.32
2022-10-29T06:13:13.362Z,11.77
2022-10-29T06:15:43.013Z,17.10
2022-10-29T06:18:11.608Z,17.37
2022-10-29T06:20:39.995Z,14.25
2022-10-29T06:23:08.351Z,16.20
2022-10-29T06:25:36.451Z,15.35
2022-10-29T06:28:05.713Z,34.60
2022-10-29T06:30:36.203Z,21.58
2022-10-29T06:33:05.998Z,24.95
2022-10-29T06:35:37.071Z,20.38
2022-10-29T06:38:10.891Z,20.90
2022-10-29T06:40:40.632Z,16.10
2022-10-29T06:43:11.403Z,14.98
2022-10-29T06:45:39.443Z,15.98
2022-10-29T06:48:08.836Z,13.23
2022-10-29T06:50:36.881Z,11.63
2022-10-29T06:53:06.727Z,11.05
2022-10-29T06:55:35.318Z,13.60
2022-10-29T06:58:04.990Z,10.98
2022-10-29T07:00:34.441Z,13.50
2022-10-29T07:03:04.995Z,13.27
2022-10-29T07:08:03.602Z,11.02
2022-10-29T07:10:33.201Z,19.63
2022-10-29T07:13:02.283Z,8.17
2022-10-29T07:15:31.381Z,12.73
2022-10-29T07:18:01.178Z,8.75
2022-10-29T07:20:30.839Z,14.35
2022-10-29T07:23:01.464Z,15.50
2022-10-29T07:28:05.167Z,17.65
2022-10-29T07:30:33.577Z,11.48
2022-10-29T07:33:01.454Z,14.35
2022-10-29T07:35:30.064Z,14.05
2022-10-29T07:38:05.293Z,9.85
2022-10-29T07:40:36.942Z,18.02
2022-10-29T07:43:04.901Z,14.00
2022-10-29T07:45:33.177Z,15.77
2022-10-29T07:48:02.990Z,16.42
2022-10-29T07:50:31.984Z,16.10
2022-10-29T07:53:02.139Z,14.35
2022-10-29T07:55:30.812Z,14.90
2022-10-29T07:58:01.272Z,15.38
2022-10-29T08:02:58.553Z,9.85
2022-10-29T08:05:27.889Z,17.60
2022-10-29T08:07:56.461Z,16.52
2022-10-29T08:10:26.508Z,14.98
2022-10-29T08:12:56.565Z,18.45
2022-10-29T08:15:25.799Z,11.55
2022-10-29T08:17:54.003Z,11.63
2022-10-29T08:20:23.704Z,13.75
2022-10-29T08:22:51.645Z,10.75
2022-10-29T08:25:19.999Z,12.20
2022-10-29T08:27:59.118Z,13.32
2022-10-29T08:30:28.420Z,17.20
2022-10-29T08:32:56.710Z,9.68
2022-10-29T08:35:25.211Z,10.65
2022-10-29T08:37:53.136Z,12.70
2022-10-29T08:40:30.109Z,12.00
2022-10-29T08:43:33.083Z,11.85
2022-10-29T08:46:02.786Z,11.38
2022-10-29T08:48:40.503Z,15.27
2022-10-29T08:51:15.322Z,10.15
2022-10-29T08:53:54.386Z,10.27
2022-10-29T08:56:36.351Z,12.73
2022-10-29T08:59:08.263Z,12.32
2022-10-29T09:01:38.300Z,12.32
2022-10-29T09:04:21.427Z,10.38
2022-10-29T09:07:03.648Z,14.15
2022-10-29T09:09:39.459Z,17.15
2022-10-29T09:12:35.103Z,14.00
2022-10-29T09:15:19.242Z,9.18
2022-10-29T09:18:04.666Z,12.00
2022-10-29T09:20:44.518Z,12.45
2022-10-29T09:23:21.613Z,13.93
2022-10-29T09:25:54.968Z,15.88
2022-10-29T09:28:34.026Z,13.88
2022-10-29T09:31:09.290Z,12.10
2022-10-29T09:33:40.256Z,18.15
2022-10-29T09:36:15.835Z,14.10
2022-10-29T09:38:56.121Z,10.70
2022-10-29T09:41:28.302Z,11.27
2022-10-29T09:44:03.047Z,16.63
2022-10-29T09:46:40.483Z,15.43
2022-10-29T09:49:25.472Z,13.65
2022-10-29T09:51:57.671Z,11.02
2022-10-29T09:54:28.278Z,10.75
2022-10-29T09:56:58.478Z,15.70
2022-10-29T09:59:35.035Z,9.35
2022-10-29T10:02:03.152Z,13.10
2022-10-29T10:04:38.294Z,16.00
2022-10-29T10:07:08.453Z,14.05
2022-10-29T10:09:52.925Z,18.13
2022-10-29T10:12:21.877Z,13.80
2022-10-29T10:14:49.870Z,12.35
2022-10-29T10:17:17.830Z,17.27
2022-10-29T10:19:48.847Z,19.05
2022-10-29T10:22:22.436Z,11.98
2022-10-29T10:24:50.361Z,12.93
2022-10-29T10:27:31.731Z,17.85
2022-10-29T10:30:13.958Z,13.88
2022-10-29T10:32:41.818Z,12.70
2022-10-29T10:35:30.341Z,11.77
2022-10-29T10:38:00.432Z,12.70
2022-10-29T10:40:29.342Z,14.48
2022-10-29T10:42:57.542Z,12.30
2022-10-29T10:45:28.072Z,9.88
2022-10-29T10:47:59.383Z,15.00
2022-10-29T10:50:31.054Z,14.05
2022-10-29T10:53:01.166Z,19.27
2022-10-29T10:55:32.885Z,11.43
2022-10-29T10:58:08.159Z,13.10
2022-10-29T11:00:41.497Z,11.15
2022-10-29T11:03:16.293Z,13.25
2022-10-29T11:05:50.885Z,17.08
2022-10-29T11:08:24.332Z,13.57
2022-10-29T11:10:56.129Z,11.35
2022-10-29T11:13:28.176Z,14.10
2022-10-29T11:16:03.021Z,15.38
2022-10-29T11:18:35.920Z,11.25
2022-10-29T11:21:11.898Z,17.00
2022-10-29T11:23:47.554Z,12.18
2022-10-29T11:26:21.200Z,21.55
2022-10-29T11:28:55.097Z,14.20
2022-10-29T11:31:30.164Z,14.82
2022-10-29T11:34:07.257Z,13.07
2022-10-29T11:36:42.215Z,13.55
2022-10-29T11:39:14.122Z,14.77
2022-10-29T11:41:47.876Z,17.45
2022-10-29T11:44:17.949Z,15.25
2022-10-29T11:47:00.025Z,10.00
2022-10-29T11:49:42.222Z,13.95
2022-10-29T11:52:14.759Z,15.05
2022-10-29T11:54:52.045Z,17.48
2022-10-29T11:57:27.231Z,14.88
2022-10-29T12:00:14.840Z,8.82
2022-10-29T12:03:14.199Z,10.93
2022-10-29T12:05:47.090Z,11.40
2022-10-29T12:08:37.938Z,11.25
2022-10-29T12:11:14.505Z,15.18
2022-10-29T12:13:54.441Z,13.50
2022-10-29T12:16:33.899Z,14.07
2022-10-29T12:19:08.547Z,12.60
2022-10-29T12:21:51.520Z,13.73
2022-10-29T12:24:39.466Z,10.20
2022-10-29T12:27:14.522Z,15.88
2022-10-29T12:29:50.637Z,14.95
2022-10-29T12:32:24.245Z,18.23
2022-10-29T12:35:02.883Z,19.73
2022-10-29T12:37:39.634Z,11.15
2022-10-29T12:40:18.376Z,13.73
2022-10-29T12:42:48.329Z,11.93
2022-10-29T12:45:30.161Z,12.53
2022-10-29T12:48:09.292Z,12.50
2022-10-29T12:50:47.436Z,13.45
2022-10-29T12:53:27.634Z,8.27
2022-10-29T12:58:45.355Z,15.02
2022-10-29T13:04:34.803Z,9.20
2022-10-29T13:07:23.047Z,14.32
2022-10-29T13:10:31.086Z,11.45
2022-10-29T13:13:05.661Z,13.80
2022-10-29T13:15:36.794Z,14.02
2022-10-29T13:18:17.509Z,12.52
2022-10-29T13:20:49.707Z,15.98
2022-10-29T13:23:41.372Z,13.38
2022-10-29T13:26:10.308Z,14.05
2022-10-29T13:28:51.788Z,10.68
2022-10-29T13:31:48.953Z,11.57
2022-10-29T13:34:51.708Z,12.23
2022-10-29T13:37:39.514Z,11.40
2022-10-29T13:40:55.195Z,9.82
2022-10-29T13:43:24.173Z,9.10
2022-10-29T13:46:04.962Z,11.63
2022-10-29T13:48:36.264Z,11.55
2022-10-29T13:51:08.912Z,12.93
2022-10-29T13:53:43.626Z,13.10
2022-10-29T13:56:19.972Z,10.20
2022-10-29T13:58:51.581Z,15.63
2022-10-29T14:01:23.961Z,13.57
2022-10-29T14:04:00.212Z,11.10
2022-10-29T14:06:34.501Z,11.85
2022-10-29T14:09:14.395Z,10.90
2022-10-29T14:11:45.598Z,12.57
2022-10-29T14:14:25.243Z,19.58
2022-10-29T14:17:10.548Z,11.45
2022-10-29T14:19:43.921Z,18.33
2022-10-29T14:22:35.612Z,12.93
2022-10-29T14:25:26.221Z,15.70
2022-10-29T14:28:24.541Z,14.65
2022-10-29T14:31:02.459Z,10.32
2022-10-29T14:33:33.604Z,14.13
2022-10-29T14:36:09.668Z,9.55
2022-10-29T14:38:43.987Z,14.32
2022-10-29T14:41:12.810Z,8.63
2022-10-29T14:43:41.605Z,8.82
2022-10-29T14:46:19.938Z,13.20
2022-10-29T14:48:55.812Z,12.65
2022-10-29T14:51:24.033Z,13.73
2022-10-29T14:53:59.781Z,12.13
2022-10-29T14:56:34.491Z,9.45
2022-10-29T14:59:08.505Z,12.38
2022-10-29T15:01:46.224Z,13.98
2022-10-29T15:04:21.389Z,17.15
2022-10-29T15:06:49.460Z,12.07
2022-10-29T15:09:26.893Z,15.48
2022-10-29T15:12:08.296Z,14.75
2022-10-29T15:14:38.770Z,14.52
2022-10-29T15:17:12.799Z,11.73
2022-10-29T15:19:47.369Z,11.70
2022-10-29T15:22:22.497Z,17.13
2022-10-29T15:24:53.433Z,20.70
2022-10-29T15:27:24.390Z,14.35
2022-10-29T15:32:22.750Z,18.30
2022-10-29T15:34:54.668Z,13.45
2022-10-29T15:37:41.366Z,14.15
2022-10-29T15:40:13.343Z,16.77
2022-10-29T15:42:41.920Z,14.25
2022-10-29T15:45:22.780Z,16.25
2022-10-29T15:47:52.493Z,18.55
2022-10-29T15:50:23.501Z,11.20
2022-10-29T15:52:57.872Z,14.68
2022-10-29T15:55:29.260Z,15.07
2022-10-29T15:58:01.585Z,19.73
2022-10-29T16:00:29.967Z,14.63
2022-10-29T16:03:04.301Z,14.35
2022-10-29T16:05:33.702Z,18.60
2022-10-29T16:08:03.612Z,21.30
2022-10-29T16:10:31.907Z,17.50
2022-10-29T16:13:00.291Z,20.05
2022-10-29T16:15:28.322Z,17.15
2022-10-29T16:17:56.373Z,14.30
2022-10-29T16:20:24.490Z,18.48
2022-10-29T16:22:54.666Z,17.02
2022-10-29T16:25:27.219Z,18.65
2022-10-29T16:27:56.041Z,17.70
2022-10-29T16:30:24.908Z,21.05
2022-10-29T16:32:56.063Z,16.05
2022-10-29T16:35:26.216Z,15.25
2022-10-29T16:37:56.705Z,20.70
2022-10-29T16:40:27.144Z,21.20
2022-10-29T16:45:26.913Z,18.60
2022-10-29T16:47:55.957Z,14.88
2022-10-29T16:50:25.581Z,16.67
2022-10-29T16:52:59.865Z,18.42
2022-10-29T16:55:28.368Z,14.27
2022-10-29T16:57:56.739Z,16.58
2022-10-29T17:00:26.317Z,19.15
2022-10-29T17:02:55.134Z,14.30
2022-10-29T17:05:24.868Z,16.85
2022-10-29T17:07:54.336Z,13.82
2022-10-29T17:10:24.025Z,17.95
2022-10-29T17:12:51.925Z,21.33
2022-10-29T17:15:20.616Z,18.00
2022-10-29T17:17:48.576Z,28.48
2022-10-29T17:20:16.911Z,22.67
2022-10-29T17:22:44.864Z,27.38
2022-10-29T17:25:13.123Z,20.60
2022-10-29T17:27:43.009Z,18.23
2022-10-29T17:30:12.086Z,31.52
2022-10-29T17:32:40.580Z,21.87
2022-10-29T17:35:09.032Z,26.52
2022-10-29T17:37:37.079Z,23.67
2022-10-29T17:40:08.024Z,26.40
2022-10-29T17:42:36.838Z,28.08
2022-10-29T17:45:07.456Z,31.13
2022-10-29T17:47:35.325Z,28.27
2022-10-29T17:50:03.178Z,35.05
2022-10-29T17:52:31.051Z,35.25
2022-10-29T17:54:58.851Z,33.67
2022-10-29T17:57:26.684Z,28.60
2022-10-29T17:59:54.596Z,21.55
2022-10-29T18:02:24.071Z,22.55
2022-10-29T18:04:52.093Z,22.15
2022-10-29T18:07:19.985Z,20.30
2022-10-29T18:09:47.874Z,16.00
2022-10-29T18:12:15.962Z,18.98
2022-10-29T18:14:43.802Z,17.00
2022-10-29T18:17:11.725Z,20.67
2022-10-29T18:19:40.985Z,24.35
2022-10-29T18:22:08.882Z,23.70
2022-10-29T18:24:36.761Z,26.85
2022-10-29T18:27:04.824Z,29.40
2022-10-29T18:29:32.678Z,38.15
2022-10-29T18:32:00.568Z,39.72
2022-10-29T18:34:28.429Z,48.90
2022-10-29T18:36:57.630Z,48.95
2022-10-29T18:39:25.526Z,37.40
2022-10-29T18:41:53.357Z,33.53
2022-10-29T18:44:22.104Z,21.80
2022-10-29T18:46:50.217Z,19.90
2022-10-29T18:49:18.364Z,23.35
2022-10-29T18:51:46.519Z,19.85
2022-10-29T18:54:16.080Z,19.48
2022-10-29T18:56:44.208Z,16.77
2022-10-29T18:59:12.881Z,18.80
2022-10-29T19:01:41.818Z,21.90
2022-10-29T19:04:14.184Z,20.35
2022-10-29T19:06:42.470Z,20.60
2022-10-29T19:09:12.375Z,20.38
2022-10-29T19:11:42.087Z,19.08
2022-10-29T19:14:13.730Z,26.10
2022-10-29T19:16:42.107Z,18.63
2022-10-29T19:19:12.707Z,17.60
2022-10-29T19:24:16.356Z,14.85
2022-10-29T19:26:46.011Z,12.20
2022-10-29T19:29:15.215Z,16.67
2022-10-29T19:31:46.044Z,18.58
2022-10-29T19:34:14.424Z,14.85
2022-10-29T19:36:42.741Z,14.48
2022-10-29T19:39:10.736Z,13.13
2022-10-29T19:41:38.993Z,12.82
2022-10-29T19:44:08.464Z,15.77
2022-10-29T19:46:36.431Z,15.18
2022-10-29T19:49:04.362Z,13.52
2022-10-29T19:51:33.019Z,14.57
2022-10-29T19:54:04.404Z,18.73
2022-10-29T19:56:36.804Z,13.88
2022-10-29T19:59:05.048Z,12.95
2022-10-29T20:01:34.565Z,12.00
2022-10-29T20:04:02.464Z,17.08
2022-10-29T20:06:30.315Z,16.83
2022-10-29T20:08:58.377Z,20.08
2022-10-29T20:11:26.226Z,18.90
2022-10-29T20:13:54.487Z,14.57
2022-10-29T20:16:22.664Z,22.52
2022-10-29T20:18:52.260Z,19.30
2022-10-29T20:21:20.455Z,19.67
2022-10-29T20:23:48.309Z,17.33
2022-10-29T20:26:16.229Z,21.23
2022-10-29T20:28:44.156Z,14.45
2022-10-29T20:31:14.334Z,19.38
2022-10-29T20:36:11.827Z,22.48
2022-10-29T20:38:39.743Z,15.77
2022-10-29T20:41:07.721Z,17.33
2022-10-29T20:43:35.664Z,19.73
2022-10-29T20:46:04.628Z,18.25
2022-10-29T20:48:32.801Z,18.80
2022-10-29T20:51:00.733Z,19.75
2022-10-29T20:53:30.172Z,20.85
2022-10-29T20:55:58.136Z,23.13
2022-10-29T20:58:25.980Z,23.55
2022-10-29T21:00:54.056Z,19.80
2022-10-29T21:03:22.063Z,22.60
2022-10-29T21:05:49.945Z,15.70
2022-10-29T21:08:18.199Z,15.73
2022-10-29T21:10:48.112Z,16.98
2022-10-29T21:13:16.300Z,18.88
2022-10-29T21:15:44.877Z,22.05
2022-10-29T21:18:12.788Z,16.67
2022-10-29T21:20:40.665Z,21.33
2022-10-29T21:23:08.788Z,22.02
2022-10-29T21:25:37.121Z,23.88
2022-10-29T21:28:06.587Z,16.08
2022-10-29T21:30:35.125Z,23.30
2022-10-29T21:33:03.052Z,18.17
2022-10-29T21:35:30.942Z,17.50
2022-10-29T21:37:59.183Z,22.83
2022-10-29T21:40:28.115Z,20.80
2022-10-29T21:42:56.353Z,18.92
2022-10-29T21:45:25.811Z,21.15
2022-10-29T21:47:53.731Z,16.75
2022-10-29T21:50:21.951Z,20.85
2022-10-29T21:52:50.072Z,24.38
2022-10-29T21:55:18.536Z,21.98
2022-10-29T21:57:46.430Z,16.95
2022-10-29T22:00:17.383Z,20.23
2022-10-29T22:02:46.848Z,18.73
2022-10-29T22:05:15.046Z,14.75
2022-10-29T22:07:42.930Z,18.52
2022-10-29T22:10:11.396Z,18.05
2022-10-29T22:12:39.663Z,17.27
2022-10-29T22:15:08.876Z,22.52
2022-10-29T22:17:36.754Z,16.13
2022-10-29T22:20:07.183Z,19.05
2022-10-29T22:22:35.058Z,17.58
2022-10-29T22:25:03.174Z,23.05
2022-10-29T22:27:31.039Z,24.00
2022-10-29T22:29:58.860Z,16.02
2022-10-29T22:32:26.714Z,14.50
2022-10-29T22:34:54.630Z,15.20
2022-10-29T22:37:23.929Z,20.40
2022-10-29T22:39:51.787Z,18.70
2022-10-29T22:42:19.631Z,13.75
2022-10-29T22:44:47.471Z,14.70
2022-10-29T22:47:15.323Z,19.40
2022-10-29T22:49:43.475Z,18.42
2022-10-29T22:52:11.590Z,13.73
2022-10-29T22:54:40.755Z,16.73
2022-10-29T22:57:08.650Z,16.42
2022-10-29T22:59:36.520Z,12.32
2022-10-29T23:02:04.914Z,12.63
2022-10-29T23:04:33.033Z,16.77
2022-10-29T23:07:02.035Z,14.13
2022-10-29T23:09:30.591Z,13.27
2022-10-29T23:12:00.139Z,15.38
2022-10-29T23:14:28.558Z,13.57
2022-10-29T23:16:56.618Z,18.58
2022-10-29T23:19:24.654Z,32.78
2022-10-29T23:21:52.768Z,33.85
2022-10-29T23:24:20.577Z,19.85
2022-10-29T23:26:48.524Z,15.27
2022-10-29T23:29:17.702Z,19.23
2022-10-29T23:31:45.541Z,19.67
2022-10-29T23:34:13.790Z,19.63
2022-10-29T23:36:41.846Z,14.00
2022-10-29T23:39:09.794Z,13.63
2022-10-29T23:41:37.726Z,16.08
2022-10-29T23:44:06.131Z,17.02
2022-10-29T23:46:35.328Z,13.63
2022-10-29T23:49:03.175Z,17.90
2022-10-29T23:51:31.038Z,17.95
2022-10-29T23:53:59.609Z,20.10
2022-10-29T23:56:27.526Z,16.40
2022-10-29T23:58:55.712Z,14.05
